createdAt,value
2018-09-06T00:01:06.202Z,99.90
2018-09-06T00:03:34.183Z,99.90
2018-09-06T00:06:02.227Z,99.90
2018-09-06T00:08:30.327Z,99.90
2018-09-06T00:10:58.394Z,99.90
2018-09-06T00:13:27.018Z,99.90
2018-09-06T00:15:55.014Z,99.90
2018-09-06T00:18:23.235Z,99.90
2018-09-06T00:20:51.229Z,99.90
2018-09-06T00:23:19.284Z,99.90
2018-09-06T00:25:47.329Z,99.90
2018-09-06T00:28:15.201Z,99.90
2018-09-06T00:30:43.204Z,99.90
2018-09-06T00:33:11.135Z,99.90
2018-09-06T00:35:39.136Z,99.90
2018-09-06T00:38:07.174Z,99.90
2018-09-06T00:40:35.234Z,99.90
2018-09-06T00:43:03.309Z,99.90
2018-09-06T00:45:31.266Z,99.90
2018-09-06T00:47:59.309Z,99.90
2018-09-06T00:50:31.800Z,99.90
2018-09-06T00:53:00.289Z,99.90
2018-09-06T00:55:28.248Z,99.90
2018-09-06T00:57:56.172Z,99.90
2018-09-06T01:00:24.514Z,99.90
2018-09-06T01:02:53.261Z,99.90
2018-09-06T01:05:21.435Z,99.90
2018-09-06T01:07:49.483Z,99.90
2018-09-06T01:10:17.345Z,99.90
2018-09-06T01:12:45.326Z,99.90
2018-09-06T01:15:13.250Z,99.90
2018-09-06T01:17:41.265Z,99.90
2018-09-06T01:20:09.384Z,99.90
2018-09-06T01:22:37.836Z,99.90
2018-09-06T01:25:06.282Z,99.90
2018-09-06T01:27:34.244Z,99.90
2018-09-06T01:30:02.124Z,99.90
2018-09-06T01:32:30.055Z,99.90
2018-09-06T01:34:58.271Z,99.90
2018-09-06T01:37:26.452Z,99.90
2018-09-06T01:39:55.136Z,99.90
2018-09-06T01:42:23.193Z,99.90
2018-09-06T01:44:51.236Z,99.90
2018-09-06T01:47:19.283Z,99.90
2018-09-06T01:49:47.621Z,99.90
2018-09-06T01:52:15.590Z,99.90
2018-09-06T01:54:43.603Z,99.90
2018-09-06T01:57:11.931Z,99.90
2018-09-06T01:59:40.594Z,99.90
2018-09-06T02:02:08.987Z,99.90
2018-09-06T02:04:37.735Z,99.90
2018-09-06T02:07:06.362Z,99.90
2018-09-06T02:09:35.672Z,99.90
2018-09-06T02:12:04.120Z,99.90
2018-09-06T02:14:32.224Z,99.90
2018-09-06T02:17:00.479Z,99.90
2018-09-06T02:19:28.686Z,99.90
2018-09-06T02:21:56.936Z,99.90
2018-09-06T02:24:25.084Z,99.90
2018-09-06T02:26:53.064Z,99.90
2018-09-06T02:29:21.501Z,99.90
2018-09-06T02:31:49.648Z,99.90
2018-09-06T02:34:17.734Z,99.90
2018-09-06T02:36:46.157Z,99.90
2018-09-06T02:39:14.062Z,99.90
2018-09-06T02:41:42.113Z,99.90
2018-09-06T02:44:09.893Z,99.90
2018-09-06T02:46:37.732Z,99.90
2018-09-06T02:49:05.825Z,99.90
2018-09-06T02:51:34.901Z,99.90
2018-09-06T02:54:03.047Z,99.90
2018-09-06T02:56:31.158Z,99.90
2018-09-06T02:58:59.328Z,99.90
2018-09-06T03:01:27.473Z,99.90
2018-09-06T03:03:55.422Z,99.90
2018-09-06T03:06:23.749Z,99.90
2018-09-06T03:08:52.262Z,99.90
2018-09-06T03:11:24.532Z,99.90
2018-09-06T03:13:54.757Z,99.90
2018-09-06T03:16:23.377Z,99.90
2018-09-06T03:18:52.026Z,99.90
2018-09-06T03:21:20.434Z,99.90
2018-09-06T03:23:49.414Z,99.90
2018-09-06T03:26:18.487Z,99.90
2018-09-06T03:28:48.034Z,99.90
2018-09-06T03:31:16.018Z,99.90
2018-09-06T03:33:45.324Z,99.90
2018-09-06T03:36:13.621Z,99.90
2018-09-06T03:38:41.780Z,99.90
2018-09-06T03:41:09.861Z,99.90
2018-09-06T03:43:38.062Z,99.90
2018-09-06T03:46:12.805Z,99.90
2018-09-06T03:48:40.620Z,99.90
2018-09-06T03:51:08.324Z,99.90
2018-09-06T03:53:36.428Z,99.90
2018-09-06T03:56:04.650Z,99.90
2018-09-06T03:58:32.881Z,99.90
2018-09-06T04:01:01.051Z,99.90
2018-09-06T04:03:29.557Z,99.90
2018-09-06T04:05:57.649Z,99.90
2018-09-06T04:08:26.444Z,99.90
2018-09-06T04:10:54.719Z,99.90
2018-09-06T04:13:23.540Z,99.90
2018-09-06T04:15:51.437Z,99.90
2018-09-06T04:18:20.859Z,99.90
2018-09-06T04:20:49.332Z,99.90
2018-09-06T04:23:17.742Z,99.90
2018-09-06T04:25:46.088Z,99.90
2018-09-06T04:28:14.333Z,99.90
2018-09-06T04:30:42.354Z,99.90
2018-09-06T04:33:10.380Z,99.90
2018-09-06T04:35:38.589Z,99.90
2018-09-06T04:38:06.914Z,99.90
2018-09-06T04:40:35.526Z,99.90
2018-09-06T04:43:03.484Z,99.90
2018-09-06T04:45:31.804Z,99.90
2018-09-06T04:48:00.059Z,99.90
2018-09-06T04:50:28.302Z,99.90
2018-09-06T04:52:56.982Z,99.90
2018-09-06T04:55:25.078Z,99.90
2018-09-06T04:57:53.422Z,99.90
2018-09-06T05:00:21.481Z,99.90
2018-09-06T05:02:49.490Z,99.90
2018-09-06T05:05:17.362Z,99.90
2018-09-06T05:07:45.520Z,99.90
2018-09-06T05:10:13.681Z,99.90
2018-09-06T05:12:42.034Z,99.90
2018-09-06T05:15:10.131Z,99.90
2018-09-06T05:17:38.488Z,99.90
2018-09-06T05:20:06.832Z,99.90
2018-09-06T05:22:35.261Z,99.90
2018-09-06T05:25:03.490Z,99.90
2018-09-06T05:27:31.584Z,99.90
2018-09-06T05:30:00.123Z,99.90
2018-09-06T05:32:28.296Z,99.90
2018-09-06T05:34:57.086Z,99.90
2018-09-06T05:37:24.913Z,99.90
2018-09-06T05:39:52.924Z,99.90
2018-09-06T05:42:20.942Z,99.90
2018-09-06T05:44:48.905Z,99.90
2018-09-06T05:47:16.884Z,99.90
2018-09-06T05:49:45.037Z,99.90
2018-09-06T05:52:13.022Z,99.90
2018-09-06T05:54:40.956Z,99.90
2018-09-06T05:57:09.176Z,99.90
2018-09-06T05:59:37.136Z,99.90
2018-09-06T06:02:05.105Z,99.90
2018-09-06T06:04:33.197Z,99.90
2018-09-06T06:07:01.749Z,99.90
2018-09-06T06:09:29.832Z,99.90
2018-09-06T06:11:57.910Z,99.90
2018-09-06T06:14:26.235Z,99.90
2018-09-06T06:17:00.946Z,99.90
2018-09-06T06:19:29.006Z,99.90
2018-09-06T06:21:57.238Z,99.90
2018-09-06T06:24:25.603Z,99.90
2018-09-06T06:26:53.789Z,99.90
2018-09-06T06:29:21.489Z,99.90
2018-09-06T06:31:49.713Z,99.90
2018-09-06T06:34:18.655Z,99.90
2018-09-06T06:36:46.608Z,99.90
2018-09-06T06:39:14.985Z,99.90
2018-09-06T06:41:43.017Z,99.90
2018-09-06T06:44:11.640Z,99.90
2018-09-06T06:46:39.977Z,99.90
2018-09-06T06:49:08.159Z,99.90
2018-09-06T06:51:37.105Z,99.90
2018-09-06T06:54:05.388Z,99.90
2018-09-06T06:56:34.224Z,99.90
2018-09-06T06:59:02.252Z,99.90
2018-09-06T07:01:30.981Z,99.90
2018-09-06T07:03:59.267Z,99.90
2018-09-06T07:06:27.329Z,99.90
2018-09-06T07:08:55.543Z,99.90
2018-09-06T07:11:23.776Z,99.90
2018-09-06T07:13:51.988Z,99.90
2018-09-06T07:16:19.923Z,99.90
2018-09-06T07:18:48.379Z,99.90
2018-09-06T07:21:31.272Z,99.90
2018-09-06T07:23:59.439Z,99.90
2018-09-06T07:26:27.558Z,99.90
2018-09-06T07:28:55.474Z,99.90
2018-09-06T07:31:23.508Z,99.90
2018-09-06T07:33:55.373Z,99.90
2018-09-06T07:36:23.471Z,99.90
2018-09-06T07:38:51.577Z,99.90
2018-09-06T07:41:20.064Z,99.90
2018-09-06T07:43:48.153Z,99.90
2018-09-06T07:46:16.261Z,99.90
2018-09-06T07:48:44.293Z,99.90
2018-09-06T07:51:12.422Z,99.90
2018-09-06T07:53:40.520Z,99.90
2018-09-06T07:56:08.765Z,99.90
2018-09-06T07:58:38.973Z,99.90
2018-09-06T08:01:07.183Z,99.90
2018-09-06T08:03:35.891Z,99.90
2018-09-06T08:06:03.832Z,99.90
2018-09-06T08:08:31.945Z,99.90
2018-09-06T08:11:00.589Z,99.90
2018-09-06T08:13:29.266Z,99.90
2018-09-06T08:15:58.779Z,99.90
2018-09-06T08:18:26.651Z,99.90
2018-09-06T08:20:54.763Z,99.90
2018-09-06T08:23:23.457Z,99.90
2018-09-06T08:25:51.487Z,99.90
2018-09-06T08:28:19.780Z,99.90
2018-09-06T08:30:47.932Z,99.90
2018-09-06T08:33:15.898Z,99.80
2018-09-06T08:35:44.093Z,99.90
2018-09-06T08:38:12.167Z,98.90
2018-09-06T08:40:40.124Z,98.00
2018-09-06T08:43:08.374Z,97.50
2018-09-06T08:45:36.340Z,97.50
2018-09-06T08:48:04.412Z,97.70
2018-09-06T08:50:32.181Z,97.60
2018-09-06T08:52:59.950Z,97.50
2018-09-06T08:55:27.933Z,96.90
2018-09-06T08:57:56.449Z,96.90
2018-09-06T09:00:24.484Z,97.10
2018-09-06T09:02:52.564Z,96.30
2018-09-06T09:05:20.737Z,97.00
2018-09-06T09:07:48.608Z,96.60
2018-09-06T09:10:16.811Z,96.60
2018-09-06T09:12:44.958Z,96.20
2018-09-06T09:15:13.347Z,96.60
2018-09-06T09:17:41.185Z,96.30
2018-09-06T09:20:09.269Z,95.90
2018-09-06T09:22:37.294Z,94.90
2018-09-06T09:25:05.678Z,94.10
2018-09-06T09:27:33.920Z,93.80
2018-09-06T09:30:01.965Z,93.80
2018-09-06T09:32:30.293Z,93.40
2018-09-06T09:34:58.594Z,92.90
2018-09-06T09:37:26.823Z,92.90
2018-09-06T09:39:54.788Z,92.50
2018-09-06T09:42:22.754Z,93.40
2018-09-06T09:44:50.893Z,92.80
2018-09-06T09:49:48.702Z,93.80
2018-09-06T09:52:16.885Z,94.00
2018-09-06T09:54:45.284Z,93.30
2018-09-06T09:57:13.797Z,93.40
2018-09-06T09:59:41.591Z,94.40
2018-09-06T10:02:15.014Z,95.10
2018-09-06T10:04:48.468Z,94.30
2018-09-06T10:07:22.027Z,94.70
2018-09-06T10:09:57.480Z,93.00
2018-09-06T10:12:26.190Z,91.40
2018-09-06T10:14:55.010Z,93.00
2018-09-06T10:17:22.881Z,92.00
2018-09-06T10:19:51.525Z,91.60
2018-09-06T10:22:19.774Z,90.10
2018-09-06T10:24:48.236Z,85.80
2018-09-06T10:27:16.246Z,90.10
2018-09-06T10:29:44.490Z,90.70
2018-09-06T10:32:12.838Z,90.00
2018-09-06T10:34:40.751Z,87.00
2018-09-06T10:37:08.543Z,83.80
2018-09-06T10:39:36.694Z,82.40
2018-09-06T10:42:04.499Z,77.80
2018-09-06T10:44:32.509Z,77.20
2018-09-06T10:47:00.896Z,75.90
2018-09-06T10:49:29.208Z,74.00
2018-09-06T10:51:57.434Z,77.00
2018-09-06T10:54:25.440Z,76.20
2018-09-06T10:56:53.408Z,76.70
2018-09-06T10:59:21.764Z,75.30
2018-09-06T11:01:50.247Z,77.30
2018-09-06T11:04:18.907Z,74.20
2018-09-06T11:06:47.029Z,74.50
2018-09-06T11:09:14.857Z,72.60
2018-09-06T11:11:43.150Z,73.20
2018-09-06T11:14:11.350Z,68.40
2018-09-06T11:16:40.158Z,71.50
2018-09-06T11:19:08.128Z,69.50
2018-09-06T11:21:37.074Z,67.70
2018-09-06T11:24:05.022Z,74.80
2018-09-06T11:26:33.662Z,79.10
2018-09-06T11:29:01.899Z,80.90
2018-09-06T11:31:30.279Z,80.20
2018-09-06T11:33:58.600Z,80.30
2018-09-06T11:36:28.057Z,83.10
2018-09-06T11:38:56.394Z,78.90
2018-09-06T11:41:24.832Z,78.80
2018-09-06T11:43:52.905Z,76.80
2018-09-06T11:46:20.835Z,77.80
2018-09-06T11:48:48.893Z,76.00
2018-09-06T11:51:17.444Z,77.50
2018-09-06T11:53:48.016Z,73.20
2018-09-06T11:56:16.241Z,75.50
2018-09-06T11:58:44.323Z,77.70
2018-09-06T12:01:12.506Z,81.40
2018-09-06T12:03:40.971Z,80.60
2018-09-06T12:06:09.368Z,83.40
2018-09-06T12:08:37.416Z,81.80
2018-09-06T12:11:05.776Z,82.10
2018-09-06T12:13:35.201Z,82.90
2018-09-06T12:16:03.204Z,84.80
2018-09-06T12:18:31.524Z,81.30
2018-09-06T12:21:00.201Z,81.70
2018-09-06T12:23:28.352Z,81.10
2018-09-06T12:25:56.468Z,81.30
2018-09-06T12:28:24.461Z,81.90
2018-09-06T12:30:52.820Z,82.40
2018-09-06T12:33:22.278Z,79.00
2018-09-06T12:35:50.406Z,81.80
2018-09-06T12:38:18.671Z,81.20
2018-09-06T12:40:47.087Z,82.80
2018-09-06T12:43:15.499Z,80.60
2018-09-06T12:45:44.001Z,81.10
2018-09-06T12:48:12.455Z,79.10
2018-09-06T12:50:43.499Z,80.40
2018-09-06T12:53:11.817Z,83.00
2018-09-06T12:55:40.028Z,82.40
2018-09-06T12:58:08.299Z,79.20
2018-09-06T13:00:36.422Z,79.80
2018-09-06T13:03:05.564Z,79.30
2018-09-06T13:05:34.017Z,81.70
2018-09-06T13:08:02.266Z,81.60
2018-09-06T13:10:32.206Z,81.10
2018-09-06T13:13:00.220Z,79.60
2018-09-06T13:15:29.577Z,81.30
2018-09-06T13:17:57.680Z,79.80
2018-09-06T13:20:25.783Z,80.30
2018-09-06T13:22:54.577Z,81.10
2018-09-06T13:25:23.246Z,80.00
2018-09-06T13:27:51.607Z,80.50
2018-09-06T13:30:19.828Z,84.60
2018-09-06T13:32:48.833Z,87.10
2018-09-06T13:35:16.955Z,80.80
2018-09-06T13:37:44.888Z,80.70
2018-09-06T13:40:13.239Z,79.70
2018-09-06T13:42:41.739Z,81.00
2018-09-06T13:45:09.912Z,79.90
2018-09-06T13:47:38.185Z,80.70
2018-09-06T13:50:06.404Z,79.30
2018-09-06T13:52:35.256Z,82.10
2018-09-06T13:58:02.548Z,76.80
2018-09-06T14:00:30.815Z,75.30
2018-09-06T14:03:00.504Z,77.90
2018-09-06T14:05:29.512Z,78.20
2018-09-06T14:07:57.802Z,78.90
2018-09-06T14:10:26.371Z,81.40
2018-09-06T14:12:55.394Z,78.40
2018-09-06T14:15:24.124Z,78.10
2018-09-06T14:17:52.604Z,78.90
2018-09-06T14:20:20.724Z,80.60
2018-09-06T14:22:49.531Z,80.30
2018-09-06T14:25:18.722Z,84.30
2018-09-06T14:27:47.123Z,85.80
2018-09-06T14:30:16.094Z,82.50
2018-09-06T14:32:45.317Z,84.80
2018-09-06T14:35:14.125Z,88.00
2018-09-06T14:37:41.955Z,87.60
2018-09-06T14:40:10.039Z,88.30
2018-09-06T14:42:38.067Z,86.60
2018-09-06T14:45:06.685Z,86.20
2018-09-06T14:47:34.751Z,87.60
2018-09-06T14:50:03.177Z,87.80
2018-09-06T14:52:31.395Z,88.80
2018-09-06T14:54:59.349Z,90.10
2018-09-06T14:57:27.768Z,90.50
2018-09-06T14:59:55.907Z,80.20
2018-09-06T15:02:24.037Z,77.50
2018-09-06T15:04:51.934Z,84.10
2018-09-06T15:07:20.569Z,89.10
2018-09-06T15:09:49.038Z,88.10
2018-09-06T15:12:17.416Z,86.50
2018-09-06T15:14:45.963Z,87.00
2018-09-06T15:17:13.980Z,89.10
2018-09-06T15:19:42.007Z,90.10
2018-09-06T15:22:10.133Z,90.40
2018-09-06T15:24:39.182Z,90.70
2018-09-06T15:27:07.266Z,90.60
2018-09-06T15:29:35.290Z,90.90
2018-09-06T15:32:03.860Z,90.90
2018-09-06T15:34:32.235Z,91.00
2018-09-06T15:37:00.795Z,91.00
2018-09-06T15:39:29.767Z,91.90
2018-09-06T15:41:58.030Z,91.50
2018-09-06T15:44:26.215Z,92.30
2018-09-06T15:46:54.656Z,92.50
2018-09-06T15:49:23.045Z,92.90
2018-09-06T15:51:51.092Z,93.60
2018-09-06T15:54:19.104Z,93.80
2018-09-06T15:56:47.038Z,94.20
2018-09-06T15:59:15.592Z,94.50
2018-09-06T16:01:43.648Z,95.00
2018-09-06T16:09:00.112Z,95.40
2018-09-06T16:11:28.551Z,95.20
2018-09-06T16:13:58.053Z,95.10
2018-09-06T16:16:26.149Z,94.90
2018-09-06T16:18:53.955Z,95.00
2018-09-06T16:21:21.887Z,95.00
2018-09-06T16:23:50.270Z,94.90
2018-09-06T16:26:18.343Z,94.60
2018-09-06T16:28:46.763Z,95.00
2018-09-06T16:31:14.628Z,95.30
2018-09-06T16:33:42.852Z,95.40
2018-09-06T16:36:11.047Z,96.50
2018-09-06T16:38:39.004Z,96.40
2018-09-06T16:41:07.042Z,96.70
2018-09-06T16:43:34.781Z,95.70
2018-09-06T16:46:02.764Z,95.50
2018-09-06T16:48:30.826Z,94.40
2018-09-06T16:50:59.008Z,94.20
2018-09-06T16:53:27.196Z,92.60
2018-09-06T16:55:55.231Z,92.00
2018-09-06T16:58:23.260Z,93.10
2018-09-06T17:00:51.455Z,94.20
2018-09-06T17:03:19.538Z,94.40
2018-09-06T17:05:47.852Z,94.70
2018-09-06T17:08:15.769Z,93.90
2018-09-06T17:10:44.184Z,94.70
2018-09-06T17:13:12.380Z,93.20
2018-09-06T17:15:40.878Z,92.30
2018-09-06T17:18:08.810Z,92.10
2018-09-06T17:20:36.741Z,92.10
2018-09-06T17:23:04.676Z,92.50
2018-09-06T17:25:33.168Z,92.70
2018-09-06T17:28:02.069Z,92.80
2018-09-06T17:30:31.530Z,92.90
2018-09-06T17:33:00.552Z,93.10
2018-09-06T17:35:29.354Z,93.10
2018-09-06T17:37:57.832Z,93.60
2018-09-06T17:40:26.310Z,93.80
2018-09-06T17:42:54.654Z,93.90
2018-09-06T17:45:24.088Z,94.10
2018-09-06T17:47:53.291Z,94.30
2018-09-06T17:50:22.116Z,94.60
2018-09-06T17:52:51.176Z,94.90
2018-09-06T17:55:19.337Z,95.00
2018-09-06T17:57:47.263Z,95.20
2018-09-06T18:00:15.708Z,95.60
2018-09-06T18:02:44.100Z,95.70
2018-09-06T18:05:11.989Z,95.80
2018-09-06T18:07:43.036Z,96.00
2018-09-06T18:10:11.300Z,96.10
2018-09-06T18:12:39.397Z,96.30
2018-09-06T18:15:07.617Z,96.60
2018-09-06T18:17:36.244Z,96.60
2018-09-06T18:20:04.627Z,96.70
2018-09-06T18:22:34.266Z,96.90
2018-09-06T18:25:02.385Z,96.80
2018-09-06T18:27:30.916Z,97.00
2018-09-06T18:29:59.441Z,97.10
2018-09-06T18:32:28.394Z,97.00
2018-09-06T18:34:58.187Z,97.10
2018-09-06T18:37:26.519Z,97.20
2018-09-06T18:39:54.292Z,97.30
2018-09-06T18:42:22.451Z,97.20
2018-09-06T18:44:50.591Z,97.40
2018-09-06T18:47:19.643Z,97.30
2018-09-06T18:49:47.724Z,97.30
2018-09-06T18:52:15.686Z,97.30
2018-09-06T18:54:44.254Z,97.60
2018-09-06T18:57:13.039Z,98.70
2018-09-06T18:59:42.085Z,99.10
2018-09-06T19:02:10.564Z,99.70
2018-09-06T19:04:39.208Z,99.90
2018-09-06T19:07:07.210Z,99.90
2018-09-06T19:09:35.195Z,99.90
2018-09-06T19:12:03.789Z,99.90
2018-09-06T19:14:32.224Z,99.90
2018-09-06T19:17:00.491Z,99.90
2018-09-06T19:19:28.919Z,99.90
2018-09-06T19:21:57.555Z,99.90
2018-09-06T19:24:25.803Z,99.90
2018-09-06T19:26:54.269Z,99.90
2018-09-06T19:29:22.689Z,99.90
2018-09-06T19:31:51.111Z,99.90
2018-09-06T19:34:19.397Z,99.90
2018-09-06T19:36:48.670Z,99.90
2018-09-06T19:39:17.117Z,99.90
2018-09-06T19:41:45.546Z,99.90
2018-09-06T19:44:14.179Z,99.90
2018-09-06T19:46:42.730Z,99.90
2018-09-06T19:49:11.742Z,99.90
2018-09-06T19:51:40.522Z,99.90
2018-09-06T19:54:08.804Z,99.90
2018-09-06T19:56:37.361Z,99.90
2018-09-06T19:59:05.379Z,99.90
2018-09-06T20:01:33.783Z,99.90
2018-09-06T20:04:01.904Z,99.90
2018-09-06T20:06:29.807Z,99.90
2018-09-06T20:08:58.250Z,99.90
2018-09-06T20:11:26.590Z,99.90
2018-09-06T20:13:55.509Z,99.90
2018-09-06T20:16:23.344Z,99.90
2018-09-06T20:18:51.471Z,99.90
2018-09-06T20:21:20.513Z,99.90
2018-09-06T20:23:48.929Z,99.90
2018-09-06T20:26:16.955Z,99.90
2018-09-06T20:28:44.822Z,99.90
2018-09-06T20:31:13.012Z,99.90
2018-09-06T20:33:41.040Z,99.90
2018-09-06T20:36:08.939Z,99.90
2018-09-06T20:38:37.245Z,99.90
2018-09-06T20:41:05.312Z,99.90
2018-09-06T20:43:33.223Z,99.90
2018-09-06T20:46:01.847Z,99.90
2018-09-06T20:48:30.015Z,99.90
2018-09-06T20:50:58.746Z,99.90
2018-09-06T20:53:26.680Z,99.90
2018-09-06T20:55:54.507Z,99.90
2018-09-06T20:58:22.796Z,99.90
2018-09-06T21:00:50.719Z,99.90
2018-09-06T21:03:18.656Z,99.90
2018-09-06T21:05:46.784Z,99.90
2018-09-06T21:08:14.903Z,99.90
2018-09-06T21:10:42.804Z,99.90
2018-09-06T21:13:11.544Z,99.90
2018-09-06T21:15:39.507Z,99.90
2018-09-06T21:18:07.396Z,99.90
2018-09-06T21:20:35.296Z,99.90
2018-09-06T21:23:10.166Z,99.90
2018-09-06T21:25:38.412Z,99.90
2018-09-06T21:28:06.572Z,99.90
2018-09-06T21:30:34.721Z,99.90
2018-09-06T21:33:02.792Z,99.90
2018-09-06T21:35:30.638Z,99.90
2018-09-06T21:37:58.942Z,99.90
2018-09-06T21:40:27.393Z,99.90
2018-09-06T21:42:55.246Z,99.90
2018-09-06T21:45:23.139Z,99.90
2018-09-06T21:47:51.344Z,99.90
2018-09-06T21:50:19.531Z,99.90
2018-09-06T21:52:47.457Z,99.90
2018-09-06T21:55:15.399Z,99.90
2018-09-06T21:57:43.320Z,99.90
2018-09-06T22:00:11.400Z,99.90
2018-09-06T22:02:45.199Z,99.90
2018-09-06T22:05:13.110Z,99.90
2018-09-06T22:07:41.223Z,99.90
2018-09-06T22:10:09.304Z,99.90
2018-09-06T22:12:36.968Z,99.90
2018-09-06T22:15:04.936Z,99.90
2018-09-06T22:17:32.883Z,99.90
2018-09-06T22:20:01.021Z,99.90
2018-09-06T22:22:29.248Z,99.90
2018-09-06T22:24:57.349Z,99.90
2018-09-06T22:27:25.124Z,99.90
2018-09-06T22:29:53.083Z,99.90
2018-09-06T22:32:20.997Z,99.90
2018-09-06T22:34:48.842Z,99.90
2018-09-06T22:37:16.732Z,99.90
2018-09-06T22:39:44.592Z,99.90
2018-09-06T22:42:12.468Z,99.90
2018-09-06T22:44:40.537Z,99.90
2018-09-06T22:47:08.503Z,99.90
2018-09-06T22:49:36.409Z,99.90
2018-09-06T22:52:04.734Z,99.90
2018-09-06T22:54:32.757Z,99.90
2018-09-06T22:57:00.894Z,99.90
2018-09-06T22:59:28.716Z,99.90
2018-09-06T23:01:57.801Z,99.90
2018-09-06T23:04:26.194Z,99.90
2018-09-06T23:06:54.057Z,99.90
2018-09-06T23:09:22.198Z,99.90
2018-09-06T23:11:50.200Z,99.90
2018-09-06T23:14:18.567Z,99.90
2018-09-06T23:16:46.368Z,99.90
2018-09-06T23:19:14.176Z,99.90
2018-09-06T23:21:42.029Z,99.90
2018-09-06T23:24:10.161Z,99.90
2018-09-06T23:26:38.326Z,99.90
2018-09-06T23:29:06.178Z,99.90
2018-09-06T23:31:36.917Z,99.90
2018-09-06T23:34:04.758Z,99.90
2018-09-06T23:36:32.960Z,99.90
2018-09-06T23:39:01.172Z,99.90
2018-09-06T23:41:29.254Z,99.90
2018-09-06T23:43:57.486Z,99.90
2018-09-06T23:46:25.477Z,99.90
2018-09-06T23:48:53.462Z,99.90
2018-09-06T23:51:21.627Z,99.90
2018-09-06T23:53:49.767Z,99.90
2018-09-06T23:56:17.518Z,99.90
2018-09-06T23:58:45.734Z,99.90
